Lunenburg, Virginia
Current Conditions -  °F | °C
As of 4:15 PM on Saturday 22 Nov 2014 (Local Time) from KW31 Reporting Station
Clear Clear  
Wind Chill: 46°   Ceiling: Unl
Heat Index: 48°   Visibility: 10mi
Dew Point: 18°   Wind: 5mph
Humidity: 30%   Direction: 200°SSW
Pressure: 30.38"   Gusts: NA
Location:  36.96°N, 78.26°W
Report Text: KW31 222115Z AUTO 20004KT 10SM CLR 09/M08 A3038 RMK AO1 T00901078
Loading
Personal Weather Stations






























Interactive Weather Map New forecast layout! Learn more

10-Day Weather Forecast

Advertisements
Track Severe Weather on mobile